createdAt,value
2023-02-07T00:01:30.788Z,3.00
2023-02-07T00:03:59.188Z,3.00
2023-02-07T00:06:32.607Z,3.00
2023-02-07T00:09:04.460Z,3.10
2023-02-07T00:11:32.172Z,3.10
2023-02-07T00:14:00.553Z,3.10
2023-02-07T00:16:28.725Z,3.10
2023-02-07T00:18:59.058Z,3.10
2023-02-07T00:21:28.977Z,3.00
2023-02-07T00:23:57.031Z,2.80
2023-02-07T00:26:26.363Z,2.90
2023-02-07T00:28:55.176Z,3.00
2023-02-07T00:31:30.514Z,3.00
2023-02-07T00:34:01.985Z,3.00
2023-02-07T00:36:33.058Z,3.00
2023-02-07T00:39:03.925Z,3.00
2023-02-07T00:41:32.048Z,3.00
2023-02-07T00:44:01.086Z,3.00
2023-02-07T00:46:29.989Z,2.90
2023-02-07T00:48:57.978Z,2.80
2023-02-07T00:51:26.404Z,2.70
2023-02-07T00:53:57.122Z,2.70
2023-02-07T00:56:27.343Z,2.70
2023-02-07T00:58:55.351Z,2.60
2023-02-07T01:01:24.866Z,2.70
2023-02-07T01:03:52.688Z,2.70
2023-02-07T01:06:21.266Z,2.60
2023-02-07T01:08:49.082Z,2.50
2023-02-07T01:11:18.925Z,2.50
2023-02-07T01:13:46.776Z,2.50
2023-02-07T01:16:30.172Z,2.50
2023-02-07T01:18:58.736Z,2.50
2023-02-07T01:21:28.045Z,2.50
2023-02-07T01:23:57.066Z,2.50
2023-02-07T01:26:26.032Z,2.50
2023-02-07T01:28:55.585Z,2.50
2023-02-07T01:31:24.487Z,2.40
2023-02-07T01:33:57.262Z,2.40
2023-02-07T01:36:27.638Z,2.40
2023-02-07T01:38:55.975Z,2.40
2023-02-07T01:41:24.898Z,2.40
2023-02-07T01:43:53.941Z,2.40
2023-02-07T01:46:21.697Z,2.30
2023-02-07T01:48:50.181Z,2.40
2023-02-07T01:51:17.989Z,2.30
2023-02-07T01:53:46.176Z,2.30
2023-02-07T01:56:29.647Z,2.30
2023-02-07T01:59:05.386Z,2.30
2023-02-07T02:01:33.877Z,2.40
2023-02-07T02:04:01.661Z,2.30
2023-02-07T02:06:32.183Z,2.40
2023-02-07T02:09:01.696Z,2.30
2023-02-07T02:11:48.433Z,2.30
2023-02-07T02:14:58.212Z,2.30
2023-02-07T02:17:28.931Z,2.20
2023-02-07T02:20:21.272Z,2.20
2023-02-07T02:22:58.208Z,2.20
2023-02-07T02:25:41.692Z,2.20
2023-02-07T02:28:20.130Z,2.10
2023-02-07T02:31:00.166Z,2.20
2023-02-07T02:33:38.740Z,2.20
2023-02-07T02:36:31.526Z,2.10
2023-02-07T02:39:23.942Z,2.10
2023-02-07T02:42:17.414Z,2.10
2023-02-07T02:44:58.961Z,2.10
2023-02-07T02:47:29.551Z,2.10
2023-02-07T02:49:58.819Z,2.10
2023-02-07T02:52:48.629Z,2.20
2023-02-07T02:55:22.414Z,2.10
2023-02-07T02:58:00.961Z,2.00
2023-02-07T03:01:01.667Z,1.90
2023-02-07T03:03:47.713Z,2.00
2023-02-07T03:06:33.936Z,2.00
2023-02-07T03:09:19.583Z,2.00
2023-02-07T03:12:13.203Z,1.80
2023-02-07T03:15:00.532Z,1.90
2023-02-07T03:17:38.682Z,1.70
2023-02-07T03:20:12.686Z,1.60
2023-02-07T03:22:41.223Z,1.60
2023-02-07T03:25:10.388Z,1.60
2023-02-07T03:27:39.427Z,1.60
2023-02-07T03:30:13.547Z,1.60
2023-02-07T03:32:53.436Z,1.70
2023-02-07T03:35:31.191Z,1.60
2023-02-07T03:38:01.744Z,1.60
2023-02-07T03:40:33.025Z,1.70
2023-02-07T03:43:08.054Z,1.80
2023-02-07T03:45:36.531Z,1.80
2023-02-07T03:48:04.450Z,1.80
2023-02-07T03:50:33.700Z,1.80
2023-02-07T03:53:01.546Z,1.90
2023-02-07T03:55:29.310Z,1.80
2023-02-07T03:57:57.297Z,1.80
2023-02-07T04:00:25.094Z,1.80
2023-02-07T04:02:53.196Z,1.60
2023-02-07T04:05:21.022Z,1.60
2023-02-07T04:07:48.731Z,1.60
2023-02-07T04:10:16.470Z,1.60
2023-02-07T04:12:44.224Z,1.50
2023-02-07T04:15:12.874Z,1.50
2023-02-07T04:17:40.587Z,1.50
2023-02-07T04:20:09.180Z,1.60
2023-02-07T04:22:37.088Z,1.50
2023-02-07T04:25:06.359Z,1.60
2023-02-07T04:27:34.031Z,1.40
2023-02-07T04:30:01.725Z,1.50
2023-02-07T04:32:29.556Z,1.40
2023-02-07T04:34:57.398Z,1.40
2023-02-07T04:37:25.641Z,1.40
2023-02-07T04:39:53.458Z,1.50
2023-02-07T04:42:21.395Z,1.50
2023-02-07T04:44:49.110Z,1.50
2023-02-07T04:47:16.897Z,1.40
2023-02-07T04:49:44.632Z,1.40
2023-02-07T04:52:12.280Z,1.30
2023-02-07T04:54:40.068Z,1.30
2023-02-07T04:57:07.882Z,1.40
2023-02-07T04:59:35.789Z,1.30
2023-02-07T05:02:03.644Z,1.20
2023-02-07T05:04:31.370Z,1.20
2023-02-07T05:06:59.146Z,1.20
2023-02-07T05:09:27.913Z,1.30
2023-02-07T05:11:55.658Z,1.30
2023-02-07T05:14:23.532Z,1.40
2023-02-07T05:16:51.340Z,1.40
2023-02-07T05:19:19.130Z,1.60
2023-02-07T05:21:46.828Z,1.50
2023-02-07T05:24:14.596Z,1.50
2023-02-07T05:26:42.340Z,1.60
2023-02-07T05:29:10.102Z,1.60
2023-02-07T05:31:56.065Z,1.70
2023-02-07T05:34:24.075Z,1.70
2023-02-07T05:36:51.889Z,1.60
2023-02-07T05:39:19.575Z,1.50
2023-02-07T05:41:47.448Z,1.40
2023-02-07T05:44:15.218Z,1.40
2023-02-07T05:46:42.954Z,1.30
2023-02-07T05:49:10.859Z,1.30
2023-02-07T05:51:38.553Z,1.30
2023-02-07T05:54:06.384Z,1.30
2023-02-07T05:56:34.075Z,1.30
2023-02-07T05:59:01.899Z,1.20
2023-02-07T06:01:29.526Z,1.10
2023-02-07T06:03:57.518Z,1.10
2023-02-07T06:06:25.220Z,1.10
2023-02-07T06:08:52.888Z,1.10
2023-02-07T06:11:20.940Z,1.10
2023-02-07T06:13:48.698Z,1.10
2023-02-07T06:16:16.510Z,1.10
2023-02-07T06:18:44.254Z,1.10
2023-02-07T06:21:11.981Z,1.10
2023-02-07T06:23:39.787Z,1.00
2023-02-07T06:26:07.477Z,1.00
2023-02-07T06:28:35.258Z,1.00
2023-02-07T06:31:03.193Z,1.00
2023-02-07T06:33:31.005Z,1.30
2023-02-07T06:35:58.748Z,1.40
2023-02-07T06:38:26.619Z,1.40
2023-02-07T06:40:54.349Z,1.30
2023-02-07T06:43:22.153Z,1.40
2023-02-07T06:45:49.889Z,1.40
2023-02-07T06:48:17.633Z,1.50
2023-02-07T06:50:45.438Z,1.40
2023-02-07T06:53:13.144Z,1.40
2023-02-07T06:55:41.157Z,1.50
2023-02-07T06:58:09.066Z,1.40
2023-02-07T07:00:36.939Z,1.20
2023-02-07T07:03:05.389Z,1.10
2023-02-07T07:05:33.668Z,1.20
2023-02-07T07:08:01.488Z,1.20
2023-02-07T07:10:29.281Z,1.30
2023-02-07T07:12:57.033Z,1.40
2023-02-07T07:15:24.776Z,1.50
2023-02-07T07:17:52.772Z,1.60
2023-02-07T07:20:20.630Z,1.70
2023-02-07T07:22:49.667Z,1.60
2023-02-07T07:25:17.449Z,1.60
2023-02-07T07:27:45.182Z,1.60
2023-02-07T07:30:16.011Z,1.70
2023-02-07T07:32:43.859Z,1.70
2023-02-07T07:35:11.653Z,1.80
2023-02-07T07:37:39.432Z,1.90
2023-02-07T07:40:07.764Z,1.70
2023-02-07T07:42:36.844Z,1.80
2023-02-07T07:45:22.099Z,1.90
2023-02-07T07:47:49.895Z,2.00
2023-02-07T07:50:17.721Z,2.20
2023-02-07T07:52:45.531Z,2.20
2023-02-07T07:55:13.269Z,2.30
2023-02-07T07:57:41.072Z,2.30
2023-02-07T08:00:09.404Z,2.40
2023-02-07T08:02:44.246Z,2.50
2023-02-07T08:05:13.779Z,2.50
2023-02-07T08:07:41.868Z,2.60
2023-02-07T08:10:09.903Z,2.70
2023-02-07T08:12:37.747Z,2.80
2023-02-07T08:15:07.899Z,2.80
2023-02-07T08:17:37.237Z,3.00
2023-02-07T08:20:06.384Z,3.00
2023-02-07T08:22:34.190Z,3.10
2023-02-07T08:25:01.969Z,3.30
2023-02-07T08:27:29.873Z,3.30
2023-02-07T08:29:57.804Z,3.50
2023-02-07T08:32:25.628Z,3.40
2023-02-07T08:34:53.298Z,3.30
2023-02-07T08:37:21.019Z,3.30
2023-02-07T08:39:52.886Z,3.40
2023-02-07T08:42:20.998Z,3.50
2023-02-07T08:44:49.030Z,3.60
2023-02-07T08:47:18.022Z,3.60
2023-02-07T08:49:46.519Z,3.70
2023-02-07T08:52:14.242Z,3.80
2023-02-07T08:54:42.181Z,3.80
2023-02-07T08:57:09.976Z,3.80
2023-02-07T08:59:37.699Z,3.80
2023-02-07T09:02:05.425Z,3.80
2023-02-07T09:04:33.211Z,3.80
2023-02-07T09:07:00.958Z,3.80
2023-02-07T09:09:28.820Z,4.00
2023-02-07T09:11:56.554Z,4.10
2023-02-07T09:14:24.269Z,4.20
2023-02-07T09:16:52.020Z,4.10
2023-02-07T09:19:20.265Z,4.20
2023-02-07T09:21:49.631Z,4.20
2023-02-07T09:24:17.483Z,4.30
2023-02-07T09:26:45.220Z,4.30
2023-02-07T09:29:15.239Z,4.50
2023-02-07T09:31:44.011Z,4.50
2023-02-07T09:34:11.860Z,4.40
2023-02-07T09:36:39.985Z,4.50
2023-02-07T09:39:07.763Z,4.50
2023-02-07T09:41:59.507Z,4.50
2023-02-07T09:44:30.090Z,4.70
2023-02-07T09:47:06.142Z,4.70
2023-02-07T09:49:44.015Z,4.80
2023-02-07T09:52:20.224Z,4.80
2023-02-07T09:54:52.918Z,4.80
2023-02-07T09:57:47.387Z,5.00
2023-02-07T10:00:24.111Z,4.80
2023-02-07T10:03:06.140Z,4.70
2023-02-07T10:06:03.637Z,4.70
2023-02-07T10:08:40.665Z,4.80
2023-02-07T10:11:21.519Z,5.20
2023-02-07T10:14:20.437Z,5.20
2023-02-07T10:17:05.737Z,5.30
2023-02-07T10:19:45.696Z,5.20
2023-02-07T10:22:25.379Z,5.40
2023-02-07T10:25:08.168Z,5.50
2023-02-07T10:27:59.371Z,5.60
2023-02-07T10:30:39.232Z,5.60
2023-02-07T10:33:16.086Z,5.40
2023-02-07T10:35:46.149Z,5.50
2023-02-07T10:38:44.230Z,5.60
2023-02-07T10:41:30.099Z,5.60
2023-02-07T10:43:57.840Z,5.40
2023-02-07T10:46:25.892Z,5.40
2023-02-07T10:48:53.663Z,5.40
2023-02-07T10:51:30.463Z,5.40
2023-02-07T10:54:16.984Z,5.50
2023-02-07T10:56:55.981Z,5.70
2023-02-07T10:59:46.171Z,5.70
2023-02-07T11:02:29.460Z,5.90
2023-02-07T11:04:59.286Z,6.00
2023-02-07T11:07:29.380Z,6.00
2023-02-07T11:10:23.592Z,6.10
2023-02-07T11:12:56.002Z,6.20
2023-02-07T11:15:36.913Z,6.30
2023-02-07T11:18:05.666Z,6.20
2023-02-07T11:20:40.069Z,6.50
2023-02-07T11:23:14.040Z,6.50
2023-02-07T11:25:43.240Z,6.60
2023-02-07T11:28:27.556Z,6.40
2023-02-07T11:31:03.339Z,6.50
2023-02-07T11:33:34.076Z,6.50
2023-02-07T11:36:13.455Z,6.70
2023-02-07T11:38:48.341Z,6.60
2023-02-07T11:41:25.660Z,6.70
2023-02-07T11:44:14.934Z,6.80
2023-02-07T11:46:46.173Z,6.90
2023-02-07T11:49:27.998Z,6.90
2023-02-07T11:52:05.420Z,6.90
2023-02-07T11:54:34.145Z,7.10
2023-02-07T11:57:14.355Z,7.10
2023-02-07T12:00:18.283Z,7.30
2023-02-07T12:02:51.961Z,7.40
2023-02-07T12:05:27.572Z,7.40
2023-02-07T12:08:10.327Z,7.40
2023-02-07T12:10:41.343Z,7.30
2023-02-07T12:13:21.165Z,7.60
2023-02-07T12:15:56.879Z,7.30
2023-02-07T12:18:38.336Z,7.60
2023-02-07T12:21:26.875Z,7.30
2023-02-07T12:24:04.488Z,7.30
2023-02-07T12:26:39.748Z,7.60
2023-02-07T12:29:31.879Z,7.70
2023-02-07T12:32:27.245Z,7.80
2023-02-07T12:35:06.505Z,7.80
2023-02-07T12:37:56.586Z,7.30
2023-02-07T12:40:36.385Z,7.40
2023-02-07T12:43:27.640Z,7.80
2023-02-07T12:46:01.221Z,7.90
2023-02-07T12:48:43.814Z,7.90
2023-02-07T12:51:36.861Z,8.40
2023-02-07T12:54:35.493Z,8.30
2023-02-07T12:57:30.302Z,8.20
2023-02-07T13:00:04.228Z,8.40
2023-02-07T13:02:53.940Z,8.40
2023-02-07T13:05:40.274Z,8.10
2023-02-07T13:08:22.893Z,8.40
2023-02-07T13:11:08.923Z,8.50
2023-02-07T13:14:00.352Z,8.40
2023-02-07T13:16:54.931Z,8.20
2023-02-07T13:19:31.875Z,8.20
2023-02-07T13:22:06.747Z,8.60
2023-02-07T13:24:35.930Z,8.80
2023-02-07T13:27:17.895Z,8.80
2023-02-07T13:29:48.534Z,8.90
2023-02-07T13:32:25.491Z,9.00
2023-02-07T13:35:12.064Z,9.20
2023-02-07T13:38:38.367Z,8.80
2023-02-07T13:41:10.839Z,8.90
2023-02-07T13:44:08.742Z,8.50
2023-02-07T13:46:58.010Z,8.30
2023-02-07T13:49:48.806Z,8.10
2023-02-07T13:52:38.489Z,8.50
2023-02-07T13:55:38.349Z,8.70
2023-02-07T13:58:54.021Z,8.30
2023-02-07T14:01:28.495Z,8.60
2023-02-07T14:04:14.085Z,8.30
2023-02-07T14:06:54.071Z,8.50
2023-02-07T14:09:21.821Z,8.50
2023-02-07T14:11:50.785Z,8.50
2023-02-07T14:14:27.848Z,8.30
2023-02-07T14:17:00.149Z,8.00
2023-02-07T14:19:40.448Z,8.20
2023-02-07T14:22:15.957Z,7.90
2023-02-07T14:25:19.262Z,7.90
2023-02-07T14:27:50.014Z,7.70
2023-02-07T14:30:39.122Z,7.80
2023-02-07T14:33:14.746Z,7.80
2023-02-07T14:36:05.839Z,7.40
2023-02-07T14:38:41.328Z,7.50
2023-02-07T14:41:15.732Z,7.40
2023-02-07T14:44:08.501Z,7.60
2023-02-07T14:46:51.521Z,7.50
2023-02-07T14:49:25.342Z,7.50
2023-02-07T14:52:01.128Z,7.50
2023-02-07T14:54:40.703Z,7.40
2023-02-07T14:57:34.529Z,7.50
2023-02-07T15:00:28.706Z,7.60
2023-02-07T15:02:59.024Z,7.30
2023-02-07T15:05:35.952Z,7.40
2023-02-07T15:08:03.749Z,7.40
2023-02-07T15:10:39.873Z,7.30
2023-02-07T15:13:25.712Z,7.40
2023-02-07T15:15:57.163Z,7.30
2023-02-07T15:18:30.784Z,7.10
2023-02-07T15:20:59.651Z,7.30
2023-02-07T15:23:29.831Z,7.30
2023-02-07T15:26:06.013Z,7.20
2023-02-07T15:28:34.319Z,6.90
2023-02-07T15:31:03.864Z,7.00
2023-02-07T15:33:59.586Z,7.10
2023-02-07T15:36:38.205Z,7.20
2023-02-07T15:39:13.548Z,7.20
2023-02-07T15:41:41.537Z,7.10
2023-02-07T15:44:24.159Z,7.10
2023-02-07T15:46:58.241Z,7.00
2023-02-07T15:49:28.808Z,7.10
2023-02-07T15:52:25.077Z,7.10
2023-02-07T15:54:54.621Z,7.10
2023-02-07T15:57:25.743Z,7.00
2023-02-07T15:59:55.936Z,6.90
2023-02-07T16:02:31.728Z,7.00
2023-02-07T16:05:08.213Z,6.90
2023-02-07T16:07:36.847Z,6.90
2023-02-07T16:10:23.311Z,6.90
2023-02-07T16:13:09.990Z,6.80
2023-02-07T16:15:40.249Z,6.80
2023-02-07T16:18:34.976Z,6.70
2023-02-07T16:21:03.016Z,6.60
2023-02-07T16:23:30.596Z,6.60
2023-02-07T16:25:58.784Z,6.60
2023-02-07T16:28:27.367Z,6.50
2023-02-07T16:30:56.229Z,6.50
2023-02-07T16:33:23.946Z,6.40
2023-02-07T16:35:51.844Z,6.40
2023-02-07T16:38:19.578Z,6.40
2023-02-07T16:40:48.590Z,6.20
2023-02-07T16:43:34.987Z,6.10
2023-02-07T16:46:03.394Z,6.00
2023-02-07T16:48:31.104Z,5.80
2023-02-07T16:50:59.355Z,5.80
2023-02-07T16:53:27.761Z,5.80
2023-02-07T16:55:57.637Z,5.60
2023-02-07T16:58:31.160Z,5.50
2023-02-07T17:00:58.894Z,5.40
2023-02-07T17:03:26.561Z,5.30
2023-02-07T17:05:54.263Z,5.40
2023-02-07T17:08:27.175Z,5.20
2023-02-07T17:10:59.221Z,5.20
2023-02-07T17:13:27.174Z,5.20
2023-02-07T17:15:55.079Z,5.10
2023-02-07T17:18:22.784Z,4.90
2023-02-07T17:20:50.644Z,4.80
2023-02-07T17:23:18.660Z,4.80
2023-02-07T17:25:46.763Z,4.70
2023-02-07T17:28:17.863Z,4.60
2023-02-07T17:30:45.823Z,4.50
2023-02-07T17:33:13.895Z,4.40
2023-02-07T17:35:41.689Z,4.50
2023-02-07T17:38:10.791Z,4.40
2023-02-07T17:40:41.280Z,4.30
2023-02-07T17:43:09.322Z,4.30
2023-02-07T17:45:38.156Z,4.30
2023-02-07T17:48:06.506Z,4.30
2023-02-07T17:50:42.275Z,4.30
2023-02-07T17:53:11.249Z,4.20
2023-02-07T17:55:39.192Z,4.00
2023-02-07T17:58:07.356Z,3.80
2023-02-07T18:00:39.500Z,4.00
2023-02-07T18:03:08.228Z,4.10
2023-02-07T18:05:36.468Z,3.90
2023-02-07T18:08:04.389Z,3.80
2023-02-07T18:10:35.033Z,3.80
2023-02-07T18:13:03.009Z,3.90
2023-02-07T18:15:31.313Z,3.90
2023-02-07T18:17:59.168Z,3.90
2023-02-07T18:20:32.985Z,4.00
2023-02-07T18:23:01.191Z,3.80
2023-02-07T18:25:30.002Z,3.90
2023-02-07T18:27:58.509Z,3.90
2023-02-07T18:30:27.857Z,4.10
2023-02-07T18:32:55.582Z,4.10
2023-02-07T18:35:23.381Z,4.00
2023-02-07T18:37:51.369Z,3.80
2023-02-07T18:40:19.184Z,3.80
2023-02-07T18:42:47.058Z,3.70
2023-02-07T18:45:14.927Z,3.80
2023-02-07T18:47:43.552Z,3.90
2023-02-07T18:50:12.390Z,3.90
2023-02-07T18:52:40.284Z,3.90
2023-02-07T18:55:08.714Z,3.90
2023-02-07T18:57:36.580Z,3.70
2023-02-07T19:00:09.680Z,3.70
2023-02-07T19:02:37.618Z,3.60
2023-02-07T19:05:05.772Z,3.60
2023-02-07T19:07:33.489Z,3.60
2023-02-07T19:10:01.982Z,3.70
2023-02-07T19:12:29.667Z,3.70
2023-02-07T19:14:57.525Z,3.80
2023-02-07T19:17:25.390Z,3.80
2023-02-07T19:19:53.238Z,3.80
2023-02-07T19:22:30.038Z,3.80
2023-02-07T19:25:03.004Z,3.70
2023-02-07T19:27:30.773Z,3.60
2023-02-07T19:29:58.483Z,3.50
2023-02-07T19:32:26.290Z,3.50
2023-02-07T19:34:53.995Z,3.40
2023-02-07T19:37:22.614Z,3.40
2023-02-07T19:39:50.403Z,3.30
2023-02-07T19:42:18.132Z,3.30
2023-02-07T19:44:45.878Z,3.30
2023-02-07T19:47:13.656Z,3.30
2023-02-07T19:49:41.666Z,3.30
2023-02-07T19:52:09.458Z,3.40
2023-02-07T19:54:37.189Z,3.60
2023-02-07T19:57:04.999Z,3.70
2023-02-07T19:59:32.787Z,3.70
2023-02-07T20:02:01.843Z,3.80
2023-02-07T20:04:29.717Z,3.70
2023-02-07T20:06:57.541Z,3.60
2023-02-07T20:09:25.279Z,3.60
2023-02-07T20:11:52.988Z,3.50
2023-02-07T20:14:20.757Z,3.20
2023-02-07T20:16:49.420Z,3.10
2023-02-07T20:19:17.418Z,2.90
2023-02-07T20:21:45.308Z,2.70
2023-02-07T20:24:13.103Z,2.50
2023-02-07T20:26:43.283Z,2.40
2023-02-07T20:29:15.776Z,2.30
2023-02-07T20:31:44.446Z,2.20
2023-02-07T20:34:12.866Z,2.20
2023-02-07T20:36:41.950Z,2.20
2023-02-07T20:39:21.314Z,2.30
2023-02-07T20:41:50.132Z,2.10
2023-02-07T20:44:20.960Z,2.10
2023-02-07T20:46:49.847Z,2.30
2023-02-07T20:49:22.039Z,2.30
2023-02-07T20:51:51.989Z,2.20
2023-02-07T20:54:23.562Z,1.90
2023-02-07T20:56:53.315Z,1.80
2023-02-07T20:59:28.296Z,1.80
2023-02-07T21:01:56.703Z,1.90
2023-02-07T21:04:25.669Z,2.20
2023-02-07T21:06:54.289Z,2.30
2023-02-07T21:09:22.338Z,2.40
2023-02-07T21:11:52.239Z,2.30
2023-02-07T21:14:28.170Z,2.30
2023-02-07T21:16:58.057Z,2.30
2023-02-07T21:19:26.116Z,2.30
2023-02-07T21:21:55.250Z,2.30
2023-02-07T21:24:23.756Z,2.30
2023-02-07T21:26:53.572Z,2.40
2023-02-07T21:29:22.300Z,2.30
2023-02-07T21:31:50.541Z,2.20
2023-02-07T21:34:21.360Z,2.00
2023-02-07T21:36:49.932Z,2.00
2023-02-07T21:39:17.649Z,2.00
2023-02-07T21:41:46.924Z,2.20
2023-02-07T21:44:15.384Z,2.00
2023-02-07T21:46:46.337Z,2.00
2023-02-07T21:49:17.104Z,2.00
2023-02-07T21:51:46.455Z,2.00
2023-02-07T21:54:14.238Z,1.90
2023-02-07T21:56:43.455Z,1.80
2023-02-07T21:59:14.471Z,1.90
2023-02-07T22:01:43.182Z,1.90
2023-02-07T22:04:11.904Z,1.70
2023-02-07T22:06:42.343Z,1.70
2023-02-07T22:09:12.499Z,1.60
2023-02-07T22:11:40.318Z,1.60
2023-02-07T22:14:08.244Z,1.60
2023-02-07T22:16:36.363Z,1.50
2023-02-07T22:19:06.443Z,1.60
2023-02-07T22:21:36.378Z,1.90
2023-02-07T22:24:05.849Z,1.90
2023-02-07T22:26:34.577Z,1.90
2023-02-07T22:29:03.645Z,1.90
2023-02-07T22:31:33.764Z,1.60
2023-02-07T22:34:07.967Z,1.60
2023-02-07T22:36:38.690Z,1.50
2023-02-07T22:39:08.097Z,1.40
2023-02-07T22:41:36.660Z,1.40
2023-02-07T22:44:04.926Z,1.30
2023-02-07T22:46:32.913Z,1.30
2023-02-07T22:49:00.707Z,1.40
2023-02-07T22:51:34.223Z,1.60
2023-02-07T22:54:07.076Z,1.40
2023-02-07T22:56:36.855Z,1.40
2023-02-07T22:59:05.760Z,1.50
2023-02-07T23:01:36.834Z,1.40
2023-02-07T23:04:07.924Z,1.30
2023-02-07T23:06:35.914Z,1.30
2023-02-07T23:09:05.513Z,1.30
2023-02-07T23:11:33.768Z,1.40
2023-02-07T23:14:02.024Z,1.40
2023-02-07T23:16:31.410Z,1.40
2023-02-07T23:19:06.820Z,1.30
2023-02-07T23:21:34.762Z,1.20
2023-02-07T23:24:04.553Z,1.20
2023-02-07T23:26:32.609Z,1.20
2023-02-07T23:29:00.392Z,1.30
2023-02-07T23:31:28.261Z,1.20
2023-02-07T23:33:56.038Z,1.20
2023-02-07T23:36:23.921Z,1.10
2023-02-07T23:38:51.930Z,1.00
2023-02-07T23:41:20.144Z,0.90
2023-02-07T23:43:47.999Z,0.90
2023-02-07T23:46:17.032Z,0.90
2023-02-07T23:48:45.424Z,0.90
2023-02-07T23:51:13.792Z,1.00
2023-02-07T23:53:43.083Z,1.10
2023-02-07T23:56:15.999Z,1.20
2023-02-07T23:58:45.200Z,1.30
